sensor_id;sensor_type;location;lat;lon;timestamp;pressure;altitude;pressure_sealevel;temperature;humidity
16100;BME280;8154;50.830;12.082;2024-03-08T00:00:03;99864.22;;;23.37;31.84
16100;BME280;8154;50.830;12.082;2024-03-08T00:02:41;99853.09;;;23.34;31.91
16100;BME280;8154;50.830;12.082;2024-03-08T00:05:09;99856.84;;;23.39;31.81
16100;BME280;8154;50.830;12.082;2024-03-08T00:07:38;99863.75;;;23.34;32.18
16100;BME280;8154;50.830;12.082;2024-03-08T00:10:06;99862.91;;;23.33;32.04
16100;BME280;8154;50.830;12.082;2024-03-08T00:12:33;99855.56;;;23.35;32.13
16100;BME280;8154;50.830;12.082;2024-03-08T00:14:59;99857.50;;;23.41;32.05
16100;BME280;8154;50.830;12.082;2024-03-08T00:17:25;99851.13;;;23.42;31.77
16100;BME280;8154;50.830;12.082;2024-03-08T00:19:52;99835.69;;;23.38;31.86
16100;BME280;8154;50.830;12.082;2024-03-08T00:22:22;99842.75;;;23.45;31.82
16100;BME280;8154;50.830;12.082;2024-03-08T00:24:50;99848.09;;;23.45;31.98
16100;BME280;8154;50.830;12.082;2024-03-08T00:27:19;99850.03;;;23.37;31.95
16100;BME280;8154;50.830;12.082;2024-03-08T00:29:47;99850.41;;;23.34;32.02
16100;BME280;8154;50.830;12.082;2024-03-08T00:32:13;99844.44;;;23.32;32.06
16100;BME280;8154;50.830;12.082;2024-03-08T00:34:39;99831.00;;;23.25;32.22
16100;BME280;8154;50.830;12.082;2024-03-08T00:37:05;99840.13;;;23.31;32.14
16100;BME280;8154;50.830;12.082;2024-03-08T00:39:31;99836.06;;;23.35;31.99
16100;BME280;8154;50.830;12.082;2024-03-08T00:42:20;99835.25;;;23.34;32.08
16100;BME280;8154;50.830;12.082;2024-03-08T00:44:49;99836.91;;;23.35;32.08
16100;BME280;8154;50.830;12.082;2024-03-08T00:47:17;99836.72;;;23.37;31.85
16100;BME280;8154;50.830;12.082;2024-03-08T00:49:43;99835.69;;;23.38;31.91
16100;BME280;8154;50.830;12.082;2024-03-08T00:52:11;99840.03;;;23.39;32.08
16100;BME280;8154;50.830;12.082;2024-03-08T00:54:38;99839.00;;;23.40;32.02
16100;BME280;8154;50.830;12.082;2024-03-08T00:57:04;99834.31;;;23.42;31.75
16100;BME280;8154;50.830;12.082;2024-03-08T00:59:30;99839.84;;;23.40;32.01
16100;BME280;8154;50.830;12.082;2024-03-08T01:02:15;99834.69;;;23.39;31.85
16100;BME280;8154;50.830;12.082;2024-03-08T01:04:49;99828.72;;;23.37;31.86
16100;BME280;8154;50.830;12.082;2024-03-08T01:07:18;99822.09;;;23.33;32.19
16100;BME280;8154;50.830;12.082;2024-03-08T01:09:47;99822.47;;;23.30;32.26
16100;BME280;8154;50.830;12.082;2024-03-08T01:12:16;99825.38;;;23.35;31.95
16100;BME280;8154;50.830;12.082;2024-03-08T01:14:42;99812.69;;;23.37;31.94
16100;BME280;8154;50.830;12.082;2024-03-08T01:17:09;99809.19;;;23.36;31.83
16100;BME280;8154;50.830;12.082;2024-03-08T01:19:35;99804.69;;;23.37;32.11
16100;BME280;8154;50.830;12.082;2024-03-08T01:22:01;99805.53;;;23.37;31.85
16100;BME280;8154;50.830;12.082;2024-03-08T01:24:28;99771.88;;;23.22;31.90
16100;BME280;8154;50.830;12.082;2024-03-08T01:26:54;99808.22;;;23.37;32.13
16100;BME280;8154;50.830;12.082;2024-03-08T01:29:23;99802.41;;;23.34;31.84
16100;BME280;8154;50.830;12.082;2024-03-08T01:31:50;99797.81;;;23.28;32.26
16100;BME280;8154;50.830;12.082;2024-03-08T01:34:20;99792.69;;;23.26;32.20
16100;BME280;8154;50.830;12.082;2024-03-08T01:36:46;99792.50;;;23.28;32.23
16100;BME280;8154;50.830;12.082;2024-03-08T01:39:12;99793.56;;;23.33;32.14
16100;BME280;8154;50.830;12.082;2024-03-08T01:41:38;99793.00;;;23.38;32.16
16100;BME280;8154;50.830;12.082;2024-03-08T01:44:06;99785.19;;;23.36;31.91
16100;BME280;8154;50.830;12.082;2024-03-08T01:46:35;99791.56;;;23.35;31.87
16100;BME280;8154;50.830;12.082;2024-03-08T01:49:04;99784.50;;;23.28;32.12
16100;BME280;8154;50.830;12.082;2024-03-08T01:51:33;99788.78;;;23.29;31.97
16100;BME280;8154;50.830;12.082;2024-03-08T01:54:03;99765.25;;;23.18;32.12
16100;BME280;8154;50.830;12.082;2024-03-08T01:56:32;99768.13;;;23.31;32.22
16100;BME280;8154;50.830;12.082;2024-03-08T01:58:59;99770.66;;;23.24;32.00
16100;BME280;8154;50.830;12.082;2024-03-08T02:01:25;99764.97;;;23.27;32.09
16100;BME280;8154;50.830;12.082;2024-03-08T02:03:51;99764.97;;;23.27;31.99
16100;BME280;8154;50.830;12.082;2024-03-08T02:06:17;99769.47;;;23.27;32.20
16100;BME280;8154;50.830;12.082;2024-03-08T02:08:44;99748.44;;;23.17;32.24
16100;BME280;8154;50.830;12.082;2024-03-08T02:11:14;99765.81;;;23.28;31.94
16100;BME280;8154;50.830;12.082;2024-03-08T02:13:43;99759.47;;;23.29;32.02
16100;BME280;8154;50.830;12.082;2024-03-08T02:16:12;99756.41;;;23.32;31.99
16100;BME280;8154;50.830;12.082;2024-03-08T02:18:41;99759.72;;;23.34;31.83
16100;BME280;8154;50.830;12.082;2024-03-08T02:21:07;99756.03;;;23.35;32.06
16100;BME280;8154;50.830;12.082;2024-03-08T02:23:34;99751.47;;;23.29;31.94
16100;BME280;8154;50.830;12.082;2024-03-08T02:26:00;99756.34;;;23.25;32.25
16100;BME280;8154;50.830;12.082;2024-03-08T02:28:27;99750.53;;;23.22;32.12
16100;BME280;8154;50.830;12.082;2024-03-08T02:30:53;99745.22;;;23.22;32.14
16100;BME280;8154;50.830;12.082;2024-03-08T02:33:24;99751.66;;;23.27;32.26
16100;BME280;8154;50.830;12.082;2024-03-08T02:35:54;99745.28;;;23.28;32.21
16100;BME280;8154;50.830;12.082;2024-03-08T02:38:22;99727.47;;;23.14;32.10
16100;BME280;8154;50.830;12.082;2024-03-08T02:40:53;99752.56;;;23.34;31.85
16100;BME280;8154;50.830;12.082;2024-03-08T02:43:20;99750.72;;;23.35;31.86
16100;BME280;8154;50.830;12.082;2024-03-08T02:45:50;99741.81;;;23.28;31.88
16100;BME280;8154;50.830;12.082;2024-03-08T02:48:18;99747.88;;;23.22;32.21
16100;BME280;8154;50.830;12.082;2024-03-08T02:50:44;99745.59;;;23.19;32.23
16100;BME280;8154;50.830;12.082;2024-03-08T02:53:29;99745.38;;;23.20;32.25
16100;BME280;8154;50.830;12.082;2024-03-08T02:55:58;99740.88;;;23.21;32.16
16100;BME280;8154;50.830;12.082;2024-03-08T02:58:26;99739.03;;;23.21;32.34
16100;BME280;8154;50.830;12.082;2024-03-08T03:00:55;99742.34;;;23.23;32.27
16100;BME280;8154;50.830;12.082;2024-03-08T03:03:25;99743.34;;;23.22;32.27
16100;BME280;8154;50.830;12.082;2024-03-08T03:06:13;99744.00;;;23.24;32.02
16100;BME280;8154;50.830;12.082;2024-03-08T03:08:39;99737.19;;;23.22;32.01
16100;BME280;8154;50.830;12.082;2024-03-08T03:11:10;99743.16;;;23.24;31.99
16100;BME280;8154;50.830;12.082;2024-03-08T03:13:36;99732.34;;;23.25;32.12
16100;BME280;8154;50.830;12.082;2024-03-08T03:16:02;99735.16;;;23.24;32.24
16100;BME280;8154;50.830;12.082;2024-03-08T03:18:29;99730.75;;;23.16;32.31
16100;BME280;8154;50.830;12.082;2024-03-08T03:20:58;99736.28;;;23.15;32.12
16100;BME280;8154;50.830;12.082;2024-03-08T03:23:27;99738.56;;;23.18;32.16
16100;BME280;8154;50.830;12.082;2024-03-08T03:25:53;99733.69;;;23.21;32.17
16100;BME280;8154;50.830;12.082;2024-03-08T03:28:41;99730.00;;;23.22;32.19
16100;BME280;8154;50.830;12.082;2024-03-08T03:31:07;99727.16;;;23.24;32.20
16100;BME280;8154;50.830;12.082;2024-03-08T03:33:51;99725.16;;;23.26;32.18
16100;BME280;8154;50.830;12.082;2024-03-08T03:36:17;99735.00;;;23.25;32.13
16100;BME280;8154;50.830;12.082;2024-03-08T03:38:45;99732.16;;;23.27;31.86
16100;BME280;8154;50.830;12.082;2024-03-08T03:41:14;99733.69;;;23.21;32.24
16100;BME280;8154;50.830;12.082;2024-03-08T03:43:40;99731.97;;;23.14;32.24
16100;BME280;8154;50.830;12.082;2024-03-08T03:46:09;99726.63;;;23.14;32.26
16100;BME280;8154;50.830;12.082;2024-03-08T03:48:36;99735.28;;;23.16;32.36
16100;BME280;8154;50.830;12.082;2024-03-08T03:51:02;99724.63;;;23.16;32.18
16100;BME280;8154;50.830;12.082;2024-03-08T03:53:29;99727.53;;;23.21;32.28
16100;BME280;8154;50.830;12.082;2024-03-08T03:55:55;99716.50;;;23.24;32.22
16100;BME280;8154;50.830;12.082;2024-03-08T03:58:42;99720.00;;;23.24;31.95
16100;BME280;8154;50.830;12.082;2024-03-08T04:01:11;99715.22;;;23.20;32.18
16100;BME280;8154;50.830;12.082;2024-03-08T04:03:41;99718.81;;;23.12;32.27
16100;BME280;8154;50.830;12.082;2024-03-08T04:06:09;99722.94;;;23.15;32.38
16100;BME280;8154;50.830;12.082;2024-03-08T04:08:36;99715.13;;;23.13;32.43
16100;BME280;8154;50.830;12.082;2024-03-08T04:11:02;99711.84;;;23.11;32.19
16100;BME280;8154;50.830;12.082;2024-03-08T04:13:29;99697.88;;;23.09;32.33
16100;BME280;8154;50.830;12.082;2024-03-08T04:15:55;99703.22;;;23.09;32.26
16100;BME280;8154;50.830;12.082;2024-03-08T04:18:21;99712.09;;;23.16;32.24
16100;BME280;8154;50.830;12.082;2024-03-08T04:20:48;99708.63;;;23.16;32.21
16100;BME280;8154;50.830;12.082;2024-03-08T04:23:15;99712.66;;;23.12;32.30
16100;BME280;8154;50.830;12.082;2024-03-08T04:25:42;99705.31;;;23.14;32.18
16100;BME280;8154;50.830;12.082;2024-03-08T04:28:12;99703.66;;;23.13;32.01
16100;BME280;8154;50.830;12.082;2024-03-08T04:30:39;99698.94;;;23.15;32.09
16100;BME280;8154;50.830;12.082;2024-03-08T04:33:07;99699.59;;;23.17;32.14
16100;BME280;8154;50.830;12.082;2024-03-08T04:35:34;99706.34;;;23.13;32.17
16100;BME280;8154;50.830;12.082;2024-03-08T04:38:00;99702.75;;;23.06;32.38
16100;BME280;8154;50.830;12.082;2024-03-08T04:40:27;99699.25;;;23.05;32.30
16100;BME280;8154;50.830;12.082;2024-03-08T04:42:55;99694.75;;;23.06;32.29
16100;BME280;8154;50.830;12.082;2024-03-08T04:45:24;99701.34;;;23.10;32.27
16100;BME280;8154;50.830;12.082;2024-03-08T04:47:52;99697.50;;;23.12;32.25
16100;BME280;8154;50.830;12.082;2024-03-08T04:50:21;99691.78;;;23.15;32.16
16100;BME280;8154;50.830;12.082;2024-03-08T04:52:47;99686.91;;;23.19;32.27
16100;BME280;8154;50.830;12.082;2024-03-08T04:55:13;99688.94;;;23.17;32.02
16100;BME280;8154;50.830;12.082;2024-03-08T04:57:39;99647.72;;;22.84;32.20
16100;BME280;8154;50.830;12.082;2024-03-08T05:00:08;99695.31;;;23.01;32.38
16100;BME280;8154;50.830;12.082;2024-03-08T05:02:37;99687.13;;;23.03;32.51
16100;BME280;8154;50.830;12.082;2024-03-08T05:05:08;99676.28;;;23.04;32.63
16100;BME280;8154;50.830;12.082;2024-03-08T05:07:39;99684.72;;;23.08;32.33
16100;BME280;8154;50.830;12.082;2024-03-08T05:10:08;99680.84;;;23.10;32.25
16100;BME280;8154;50.830;12.082;2024-03-08T05:12:36;99672.41;;;23.07;32.30
16100;BME280;8154;50.830;12.082;2024-03-08T05:15:05;99673.88;;;23.09;32.41
16100;BME280;8154;50.830;12.082;2024-03-08T05:17:33;99682.53;;;23.11;32.28
16100;BME280;8154;50.830;12.082;2024-03-08T05:19:59;99681.13;;;23.15;32.30
16100;BME280;8154;50.830;12.082;2024-03-08T05:22:25;99683.59;;;23.17;32.23
16100;BME280;8154;50.830;12.082;2024-03-08T05:24:52;99679.28;;;23.16;32.16
16100;BME280;8154;50.830;12.082;2024-03-08T05:27:21;99682.34;;;23.13;32.22
16100;BME280;8154;50.830;12.082;2024-03-08T05:29:50;99677.34;;;23.10;32.12
16100;BME280;8154;50.830;12.082;2024-03-08T05:32:20;99673.03;;;23.09;32.25
16100;BME280;8154;50.830;12.082;2024-03-08T05:34:48;99675.25;;;23.05;32.39
16100;BME280;8154;50.830;12.082;2024-03-08T05:37:14;99682.06;;;23.08;32.17
16100;BME280;8154;50.830;12.082;2024-03-08T05:39:42;99674.69;;;23.10;32.40
16100;BME280;8154;50.830;12.082;2024-03-08T05:42:08;99676.16;;;23.12;32.30
16100;BME280;8154;50.830;12.082;2024-03-08T05:44:34;99675.16;;;23.13;32.28
16100;BME280;8154;50.830;12.082;2024-03-08T05:47:00;99668.34;;;23.11;32.18
16100;BME280;8154;50.830;12.082;2024-03-08T05:49:28;99672.03;;;23.10;32.27
16100;BME280;8154;50.830;12.082;2024-03-08T05:51:56;99678.09;;;23.04;32.18
16100;BME280;8154;50.830;12.082;2024-03-08T05:54:23;99672.16;;;23.02;32.54
16100;BME280;8154;50.830;12.082;2024-03-08T05:56:49;99681.78;;;23.03;32.43
16100;BME280;8154;50.830;12.082;2024-03-08T05:59:19;99674.16;;;23.00;32.46
16100;BME280;8154;50.830;12.082;2024-03-08T06:01:46;99679.97;;;23.03;32.30
16100;BME280;8154;50.830;12.082;2024-03-08T06:04:13;99673.88;;;23.09;32.34
16100;BME280;8154;50.830;12.082;2024-03-08T06:06:40;99677.00;;;23.13;32.22
16100;BME280;8154;50.830;12.082;2024-03-08T06:09:06;99675.97;;;23.14;32.10
16100;BME280;8154;50.830;12.082;2024-03-08T06:11:37;99677.00;;;23.13;32.25
16100;BME280;8154;50.830;12.082;2024-03-08T06:14:06;99673.97;;;23.01;32.49
16100;BME280;8154;50.830;12.082;2024-03-08T06:16:34;99675.81;;;23.01;32.52
16100;BME280;8154;50.830;12.082;2024-03-08T06:19:04;99671.13;;;23.03;32.31
16100;BME280;8154;50.830;12.082;2024-03-08T06:21:31;99671.97;;;23.03;32.46
16100;BME280;8154;50.830;12.082;2024-03-08T06:23:57;99672.59;;;23.05;32.28
16100;BME280;8154;50.830;12.082;2024-03-08T06:26:24;99674.44;;;23.05;32.33
16100;BME280;8154;50.830;12.082;2024-03-08T06:28:51;99662.66;;;22.99;32.59
16100;BME280;8154;50.830;12.082;2024-03-08T06:31:36;99667.06;;;23.07;32.52
16100;BME280;8154;50.830;12.082;2024-03-08T06:34:07;99666.69;;;23.10;32.31
16100;BME280;8154;50.830;12.082;2024-03-08T06:36:36;99668.53;;;23.09;32.36
16100;BME280;8154;50.830;12.082;2024-03-08T06:39:08;99674.06;;;23.08;32.37
16100;BME280;8154;50.830;12.082;2024-03-08T06:41:38;99643.59;;;22.96;32.28
16100;BME280;8154;50.830;12.082;2024-03-08T06:44:04;99667.91;;;23.07;32.39
16100;BME280;8154;50.830;12.082;2024-03-08T06:46:31;99675.91;;;23.07;32.46
16100;BME280;8154;50.830;12.082;2024-03-08T06:48:57;99673.41;;;23.06;32.29
16100;BME280;8154;50.830;12.082;2024-03-08T06:51:23;99672.78;;;23.04;32.41
16100;BME280;8154;50.830;12.082;2024-03-08T06:53:52;99668.09;;;23.06;32.21
16100;BME280;8154;50.830;12.082;2024-03-08T06:56:21;99666.69;;;23.10;32.39
16100;BME280;8154;50.830;12.082;2024-03-08T06:58:51;99667.16;;;23.13;32.10
16100;BME280;8154;50.830;12.082;2024-03-08T07:01:20;99671.22;;;23.09;32.11
16100;BME280;8154;50.830;12.082;2024-03-08T07:03:49;99666.06;;;23.08;32.34
16100;BME280;8154;50.830;12.082;2024-03-08T07:06:15;99660.66;;;23.01;32.36
16100;BME280;8154;50.830;12.082;2024-03-08T07:08:44;99675.25;;;23.05;32.40
16100;BME280;8154;50.830;12.082;2024-03-08T07:11:11;99650.19;;;23.00;32.36
16100;BME280;8154;50.830;12.082;2024-03-08T07:13:37;99658.88;;;23.08;32.42
16100;BME280;8154;50.830;12.082;2024-03-08T07:16:10;99660.19;;;23.12;32.12
16100;BME280;8154;50.830;12.082;2024-03-08T07:18:40;99665.88;;;23.09;32.18
16100;BME280;8154;50.830;12.082;2024-03-08T07:21:11;99660.56;;;23.09;32.10
16100;BME280;8154;50.830;12.082;2024-03-08T07:23:39;99654.84;;;23.12;32.16
16100;BME280;8154;50.830;12.082;2024-03-08T07:26:24;99654.00;;;23.12;32.35
16100;BME280;8154;50.830;12.082;2024-03-08T07:28:50;99644.94;;;23.06;32.16
16100;BME280;8154;50.830;12.082;2024-03-08T07:31:16;99647.41;;;23.08;32.46
16100;BME280;8154;50.830;12.082;2024-03-08T07:33:42;99636.28;;;23.04;32.38
16100;BME280;8154;50.830;12.082;2024-03-08T07:36:08;99645.44;;;23.16;32.42
16100;BME280;8154;50.830;12.082;2024-03-08T07:38:37;99647.84;;;23.26;32.37
16100;BME280;8154;50.830;12.082;2024-03-08T07:41:06;99645.16;;;23.26;32.24
16100;BME280;8154;50.830;12.082;2024-03-08T07:43:35;99643.78;;;23.30;32.55
16100;BME280;8154;50.830;12.082;2024-03-08T07:46:02;99645.44;;;23.31;32.59
16100;BME280;8154;50.830;12.082;2024-03-08T07:48:29;99630.06;;;23.33;32.57
16100;BME280;8154;50.830;12.082;2024-03-08T07:50:56;99631.78;;;23.40;32.60
16100;BME280;8154;50.830;12.082;2024-03-08T07:53:22;99622.31;;;23.38;32.41
16100;BME280;8154;50.830;12.082;2024-03-08T07:56:10;99627.72;;;23.44;32.59
16100;BME280;8154;50.830;12.082;2024-03-08T07:58:58;99631.66;;;23.48;32.40
16100;BME280;8154;50.830;12.082;2024-03-08T08:01:27;99631.09;;;23.53;32.31
16100;BME280;8154;50.830;12.082;2024-03-08T08:03:56;99626.38;;;23.55;32.22
16100;BME280;8154;50.830;12.082;2024-03-08T08:06:22;99625.75;;;23.53;32.05
16100;BME280;8154;50.830;12.082;2024-03-08T08:08:52;99623.88;;;23.53;32.39
16100;BME280;8154;50.830;12.082;2024-03-08T08:11:18;99592.38;;;23.42;32.15
16100;BME280;8154;50.830;12.082;2024-03-08T08:13:45;99595.81;;;23.57;32.04
16100;BME280;8154;50.830;12.082;2024-03-08T08:16:11;99601.38;;;23.62;32.01
16100;BME280;8154;50.830;12.082;2024-03-08T08:18:38;99578.84;;;23.44;32.15
16100;BME280;8154;50.830;12.082;2024-03-08T08:21:24;99604.13;;;23.69;32.14
16100;BME280;8154;50.830;12.082;2024-03-08T08:23:52;99593.94;;;23.79;32.45
16100;BME280;8154;50.830;12.082;2024-03-08T08:26:21;99593.06;;;23.72;32.33
16100;BME280;8154;50.830;12.082;2024-03-08T08:28:48;99585.44;;;23.69;32.27
16100;BME280;8154;50.830;12.082;2024-03-08T08:31:16;99595.59;;;23.80;32.07
16100;BME280;8154;50.830;12.082;2024-03-08T08:33:43;99593.22;;;23.91;31.81
16100;BME280;8154;50.830;12.082;2024-03-08T08:36:10;99560.78;;;23.94;32.13
16100;BME280;8154;50.830;12.082;2024-03-08T08:38:36;99577.50;;;24.03;31.81
16100;BME280;8154;50.830;12.082;2024-03-08T08:41:03;99580.59;;;24.06;31.83
16100;BME280;8154;50.830;12.082;2024-03-08T08:43:32;99542.22;;;23.80;31.99
16100;BME280;8154;50.830;12.082;2024-03-08T08:46:02;99570.72;;;24.00;31.81
16100;BME280;8154;50.830;12.082;2024-03-08T08:48:31;99570.75;;;24.07;31.56
16100;BME280;8154;50.830;12.082;2024-03-08T08:51:00;99533.41;;;23.86;31.75
16100;BME280;8154;50.830;12.082;2024-03-08T08:53:26;99560.22;;;23.99;32.03
16100;BME280;8154;50.830;12.082;2024-03-08T08:55:52;99549.78;;;24.04;32.07
16100;BME280;8154;50.830;12.082;2024-03-08T08:58:19;99556.44;;;24.14;31.61
16100;BME280;8154;50.830;12.082;2024-03-08T09:00:45;99560.34;;;24.18;31.58
16100;BME280;8154;50.830;12.082;2024-03-08T09:03:11;99554.78;;;24.20;31.42
16100;BME280;8154;50.830;12.082;2024-03-08T09:05:40;99557.06;;;24.23;31.67
16100;BME280;8154;50.830;12.082;2024-03-08T09:08:09;99551.97;;;24.28;31.56
16100;BME280;8154;50.830;12.082;2024-03-08T09:10:37;99545.38;;;24.30;31.29
16100;BME280;8154;50.830;12.082;2024-03-08T09:13:07;99547.06;;;24.32;31.36
16100;BME280;8154;50.830;12.082;2024-03-08T09:15:35;99530.59;;;24.28;31.25
16100;BME280;8154;50.830;12.082;2024-03-08T09:18:02;99524.81;;;24.24;31.66
16100;BME280;8154;50.830;12.082;2024-03-08T09:20:28;99541.50;;;24.33;31.51
16100;BME280;8154;50.830;12.082;2024-03-08T09:22:58;99534.53;;;24.39;31.29
16100;BME280;8154;50.830;12.082;2024-03-08T09:25:24;99538.44;;;24.36;31.34
16100;BME280;8154;50.830;12.082;2024-03-08T09:27:54;99536.38;;;24.38;31.17
16100;BME280;8154;50.830;12.082;2024-03-08T09:30:23;99532.06;;;24.37;31.36
16100;BME280;8154;50.830;12.082;2024-03-08T09:32:52;99521.78;;;24.34;31.17
16100;BME280;8154;50.830;12.082;2024-03-08T09:35:21;99527.34;;;24.39;31.46
16100;BME280;8154;50.830;12.082;2024-03-08T09:37:47;99517.69;;;24.38;31.25
16100;BME280;8154;50.830;12.082;2024-03-08T09:40:17;99514.19;;;24.38;31.29
16100;BME280;8154;50.830;12.082;2024-03-08T09:42:48;99515.41;;;24.35;31.43
16100;BME280;8154;50.830;12.082;2024-03-08T09:45:14;99517.31;;;24.41;31.42
16100;BME280;8154;50.830;12.082;2024-03-08T09:47:44;99508.47;;;24.41;31.16
16100;BME280;8154;50.830;12.082;2024-03-08T09:50:12;99508.66;;;24.39;31.15
16100;BME280;8154;50.830;12.082;2024-03-08T09:52:48;99515.63;;;24.40;31.24
16100;BME280;8154;50.830;12.082;2024-03-08T09:55:17;99514.63;;;24.41;31.44
16100;BME280;8154;50.830;12.082;2024-03-08T09:57:47;99504.31;;;24.38;31.07
16100;BME280;8154;50.830;12.082;2024-03-08T10:00:34;99498.19;;;24.38;31.49
16100;BME280;8154;50.830;12.082;2024-03-08T10:03:01;99503.91;;;24.35;31.36
16100;BME280;8154;50.830;12.082;2024-03-08T10:05:30;99497.53;;;24.36;31.34
16100;BME280;8154;50.830;12.082;2024-03-08T10:07:58;99498.56;;;24.35;31.39
16100;BME280;8154;50.830;12.082;2024-03-08T10:10:39;99495.72;;;24.36;31.37
16100;BME280;8154;50.830;12.082;2024-03-08T10:13:09;99487.66;;;24.29;31.49
16100;BME280;8154;50.830;12.082;2024-03-08T10:15:42;99482.53;;;24.28;31.53
16100;BME280;8154;50.830;12.082;2024-03-08T10:18:11;99454.34;;;24.19;31.42
16100;BME280;8154;50.830;12.082;2024-03-08T10:20:38;99476.38;;;24.34;31.16
16100;BME280;8154;50.830;12.082;2024-03-08T10:23:05;99468.34;;;24.34;31.37
16100;BME280;8154;50.830;12.082;2024-03-08T10:25:32;99466.72;;;24.33;31.51
16100;BME280;8154;50.830;12.082;2024-03-08T10:27:59;99469.53;;;24.18;31.52
16100;BME280;8154;50.830;12.082;2024-03-08T10:30:25;99465.81;;;24.13;31.79
16100;BME280;8154;50.830;12.082;2024-03-08T10:32:54;99455.34;;;24.18;31.61
16100;BME280;8154;50.830;12.082;2024-03-08T10:35:23;99456.41;;;24.23;31.42
16100;BME280;8154;50.830;12.082;2024-03-08T10:37:55;99450.81;;;24.12;31.48
16100;BME280;8154;50.830;12.082;2024-03-08T10:40:27;99463.31;;;24.05;31.65
16100;BME280;8154;50.830;12.082;2024-03-08T10:42:58;99452.88;;;24.10;31.55
16100;BME280;8154;50.830;12.082;2024-03-08T10:45:39;99436.63;;;24.05;31.62
16100;BME280;8154;50.830;12.082;2024-03-08T10:48:29;99442.00;;;24.11;31.61
16100;BME280;8154;50.830;12.082;2024-03-08T10:50:59;99438.88;;;24.01;31.60
16100;BME280;8154;50.830;12.082;2024-03-08T10:53:47;99449.09;;;23.98;31.93
16100;BME280;8154;50.830;12.082;2024-03-08T10:56:16;99436.78;;;23.97;31.94
16100;BME280;8154;50.830;12.082;2024-03-08T10:58:46;99436.97;;;23.95;31.65
16100;BME280;8154;50.830;12.082;2024-03-08T11:01:14;99437.16;;;23.94;31.91
16100;BME280;8154;50.830;12.082;2024-03-08T11:06:44;99426.69;;;23.92;31.81
16100;BME280;8154;50.830;12.082;2024-03-08T11:09:30;99421.53;;;23.91;31.76
16100;BME280;8154;50.830;12.082;2024-03-08T11:12:19;99418.47;;;23.94;31.92
16100;BME280;8154;50.830;12.082;2024-03-08T11:14:47;99415.78;;;23.87;32.07
16100;BME280;8154;50.830;12.082;2024-03-08T11:20:01;99400.16;;;23.84;31.86
16100;BME280;8154;50.830;12.082;2024-03-08T11:22:34;99394.38;;;23.81;32.05
16100;BME280;8154;50.830;12.082;2024-03-08T11:25:02;99395.19;;;23.75;31.80
16100;BME280;8154;50.830;12.082;2024-03-08T11:27:30;99388.44;;;23.79;31.82
16100;BME280;8154;50.830;12.082;2024-03-08T11:30:02;99386.38;;;23.81;32.08
16100;BME280;8154;50.830;12.082;2024-03-08T11:32:38;99380.84;;;23.82;32.09
16100;BME280;8154;50.830;12.082;2024-03-08T11:35:20;99376.13;;;23.84;32.03
16100;BME280;8154;50.830;12.082;2024-03-08T11:37:49;99368.97;;;23.85;31.70
16100;BME280;8154;50.830;12.082;2024-03-08T11:40:19;99361.59;;;23.87;31.85
16100;BME280;8154;50.830;12.082;2024-03-08T11:42:49;99358.22;;;23.72;31.84
16100;BME280;8154;50.830;12.082;2024-03-08T11:45:18;99361.91;;;23.71;31.95
16100;BME280;8154;50.830;12.082;2024-03-08T11:47:50;99348.63;;;23.77;31.98
16100;BME280;8154;50.830;12.082;2024-03-08T11:50:17;99352.91;;;23.78;31.77
16100;BME280;8154;50.830;12.082;2024-03-08T11:52:45;99350.44;;;23.77;32.05
16100;BME280;8154;50.830;12.082;2024-03-08T11:55:11;99336.91;;;23.78;31.83
16100;BME280;8154;50.830;12.082;2024-03-08T11:57:38;99336.88;;;23.72;31.83
16100;BME280;8154;50.830;12.082;2024-03-08T12:00:06;99328.19;;;23.57;31.88
16100;BME280;8154;50.830;12.082;2024-03-08T12:03:03;99334.00;;;23.73;32.02
16100;BME280;8154;50.830;12.082;2024-03-08T12:05:32;99331.13;;;23.75;31.75
16100;BME280;8154;50.830;12.082;2024-03-08T12:08:04;99325.81;;;23.75;32.18
16100;BME280;8154;50.830;12.082;2024-03-08T12:10:35;99325.00;;;23.74;31.82
16100;BME280;8154;50.830;12.082;2024-03-08T12:13:01;99323.34;;;23.73;31.81
16100;BME280;8154;50.830;12.082;2024-03-08T12:15:32;99314.72;;;23.71;32.06
16100;BME280;8154;50.830;12.082;2024-03-08T12:18:00;99312.25;;;23.70;32.08
16100;BME280;8154;50.830;12.082;2024-03-08T12:20:27;99297.03;;;23.70;31.93
16100;BME280;8154;50.830;12.082;2024-03-08T12:22:58;99306.09;;;23.69;32.24
16100;BME280;8154;50.830;12.082;2024-03-08T12:25:32;99293.34;;;23.65;32.03
16100;BME280;8154;50.830;12.082;2024-03-08T12:28:10;99283.09;;;23.68;32.15
16100;BME280;8154;50.830;12.082;2024-03-08T12:30:51;99277.78;;;23.68;32.20
16100;BME280;8154;50.830;12.082;2024-03-08T12:33:22;99276.94;;;23.68;31.96
16100;BME280;8154;50.830;12.082;2024-03-08T12:35:53;99280.66;;;23.67;31.96
16100;BME280;8154;50.830;12.082;2024-03-08T12:38:21;99266.66;;;23.65;31.97
16100;BME280;8154;50.830;12.082;2024-03-08T12:40:50;99274.03;;;23.63;32.25
16100;BME280;8154;50.830;12.082;2024-03-08T12:43:23;99258.22;;;23.61;32.06
16100;BME280;8154;50.830;12.082;2024-03-08T12:45:50;99250.22;;;23.61;32.13
16100;BME280;8154;50.830;12.082;2024-03-08T12:48:17;99249.81;;;23.58;32.40
16100;BME280;8154;50.830;12.082;2024-03-08T12:50:46;99238.72;;;23.61;32.22
16100;BME280;8154;50.830;12.082;2024-03-08T12:53:16;99235.47;;;23.59;32.06
16100;BME280;8154;50.830;12.082;2024-03-08T12:55:42;99240.41;;;23.62;32.21
16100;BME280;8154;50.830;12.082;2024-03-08T12:58:09;99239.97;;;23.58;32.26
16100;BME280;8154;50.830;12.082;2024-03-08T13:00:35;99230.34;;;23.57;31.85
16100;BME280;8154;50.830;12.082;2024-03-08T13:03:08;99234.44;;;23.60;31.99
16100;BME280;8154;50.830;12.082;2024-03-08T13:05:39;99225.78;;;23.58;31.99
16100;BME280;8154;50.830;12.082;2024-03-08T13:08:07;99213.50;;;23.57;31.89
16100;BME280;8154;50.830;12.082;2024-03-08T13:10:42;99215.13;;;23.58;32.15
16100;BME280;8154;50.830;12.082;2024-03-08T13:13:12;99205.91;;;23.60;32.01
16100;BME280;8154;50.830;12.082;2024-03-08T13:15:42;99203.25;;;23.60;32.28